Meteo Giornale » Osservazioni meteo Arabia Saudita » Turaif
ore: 02:00 - Osservazioni Meteo Turaif
Lat. 31° 41' N Lon. 38° 44' E Alt. 813 metri s.l.m.
27 °C
Sereno
Temp. 24 Ore
23 °C
38 °C
Sud
7.4 Km/h
Dew point 1 °C
Umidità 18 %
Visibilità 10 Km
Il sole sorge alle ore 06:02
Il sole tramonta alle ore 18:45
| Data e Ora | Cielo e Fenomeni | T °C | DP °C | Um. % | Pres. hPa | Vis. km | Vento km/h | |
|---|---|---|---|---|---|---|---|---|
| Oggi h: 02:00 | Sereno | 27 | 1 | 18 | 1009 | 10 | S 7.4 | |
| Oggi h: 01:00 | Sereno | 29 | 0 | 15 | 1009 | 10 | S/SO 11.1 | |
| Oggi h: 00:00 | Sereno | 28 | 0 | 16 | 1009 | 10 | E/SE 11.1 | |
| Ieri h: 23:00 | Sereno | 30 | 1 | 15 | 1009 | 10 | E/SE 14.8 | |
| Ieri h: 22:00 | Sereno | 31 | -1 | 12 | 1009 | 10 | E 14.8 | |
| Ieri h: 21:00 | Sereno | 33 | -1 | 11 | 1009 | 10 | E/SE 18.5 | |
| Ieri h: 20:00 | Sereno | 34 | -1 | 10 | 1009 | 10 | E/SE 18.5 | |
| Ieri h: 19:00 | Sereno | 36 | -1 | 9 | 1009 | 10 | E/SE 18.5 | |
| Ieri h: 18:00 | Sereno | 37 | -1 | 9 | 1009 | 10 | E/SE 14.8 | |
| Ieri h: 17:00 | Sereno | 38 | -2 | 7 | 1008 | 10 | E/SE 11.1 | |
| Ieri h: 16:00 | Sereno | 38 | -2 | 7 | 1009 | 10 | S/SE 7.4 | |
| Ieri h: 15:00 | Sereno | 38 | -1 | 8 | 1009 | 10 | S/SO 11.1 | |
| Ieri h: 14:00 | Sereno | 37 | -1 | 9 | 1010 | 10 | S/SE 7.4 | |
| Ieri h: 13:00 | Sereno | 36 | 0 | 10 | 1010 | 10 | SE 18.5 | |
| Ieri h: 12:00 | Sereno | 36 | 1 | 11 | 1011 | 10 | E/SE 22.2 | |
| Ieri h: 11:00 | Sereno | 35 | 1 | 11 | 1012 | 10 | E/SE 22.2 | |
| Ieri h: 10:00 | Sereno | 33 | -2 | 10 | 1012 | 10 | E/SE 25.9 | |
| Ieri h: 09:00 | Sereno | 32 | 1 | 13 | 1012 | 10 | E/SE 22.2 | |
| Ieri h: 08:00 | Sereno | 28 | 1 | 17 | 1012 | 10 | E/SE 11.1 | |
| Ieri h: 07:00 | Sereno | 24 | 2 | 23 | 1012 | 10 | E/SE 11.1 | |
| Ieri h: 06:00 | Sereno | 23 | 2 | 25 | 1012 | 10 | E 11.1 | |
| Ieri h: 05:00 | Sereno | 25 | 2 | 22 | 1012 | 10 | E 11.1 | |
| Ieri h: 04:00 | Sereno | 26 | 3 | 22 | 1011 | 10 | E/SE 18.5 | |
| Ieri h: 03:00 | Sereno | 26 | 2 | 20 | 1011 | 10 | E 22.2 | |



